Latest Coastal Weather Observations for Portland Airport

IDV60701

Issued at 1:12 am EST Thursday 3 September 2026 (issued every 10 minutes, with the page automatically refreshed every 10 minutes)

About coastal observations | Map of coastal stations | Coastal observations for VIC | Marine services | Other Formats
Station Details ID: 090171 Name: PORTLAND AIRPORT Lat: -38.31 Lon: 141.47 Height: 80.9 m
Data from the previous 72 hours. | See also: Recent months at Portland Airport
Date/Time
EST
Wind Sea
Height
m
Swell Vis
km
Cloud Weather Temp
°C
Press
MSL
hPa
Rain since
9am
mm
Dir  Spd
kts
Gust
kts
Height
m
Period
s
Dir
03/01:00am NNW 12 21 - - - - 10 Mostly clear - 11.2 1008.8 0.4
03/12:30am NNW 13 16 - - - - 10 Mostly clear - 11.2 1009.1 0.4
03/12:00am NNW 12 19 - - - - 10 Cloudy - 11.1 1009.3 0.4
 
Date/Time
EST
Wind Sea
Height
m
Swell Vis
km
Cloud Weather Temp
°C
Press
MSL
hPa
Rain since
9am
mm
Dir  Spd
kts
Gust
kts
Height
m
Period
s
Dir
02/11:30pm NW 14 20 - - - - 10 Partly cloudy - 11.4 1009.8 0.4
02/11:00pm NNW 11 16 - - - - 10 Partly cloudy - 11.0 1010.2 0.4
02/10:30pm NNW 12 18 - - - - 10 Mostly clear - 10.8 1010.4 0.4
02/10:00pm NNW 11 17 - - - - 10 Mostly clear - 10.7 1010.6 0.4
02/09:30pm NNW 11 16 - - - - 10 Mostly clear - 10.7 1010.9 0.4
02/09:00pm NNW 10 16 - - - - 10 Partly cloudy - 10.3 1010.9 0.4
02/08:30pm NNW 9 14 - - - - 10 Mostly clear - 10.7 1011.0 0.4
02/08:00pm NW 11 16 - - - - 10 Partly cloudy - 11.5 1011.0 0.4
02/07:30pm NNW 11 14 - - - - 10 Partly cloudy - 11.6 1010.9 0.4
02/07:00pm NNW 10 15 - - - - 10 Cloudy - 11.4 1010.9 0.4
02/06:30pm NW 14 19 - - - - 10 Mostly clear - 11.5 1010.8 0.4
02/06:00pm NW 15 21 - - - - 8 Mostly cloudy - 11.2 1010.9 0.4
02/05:30pm NNW 11 17 - - - - 10 Partly cloudy - 12.3 1010.8 0.4
02/05:00pm NW 12 17 - - - - 10 Mostly clear - 12.6 1010.9 0.4
02/04:30pm NW 12 16 - - - - 10 Mostly clear - 12.9 1011.0 0.4
02/04:00pm NW 11 17 - - - - 10 Mostly clear - 12.6 1011.3 0.4
02/03:30pm WNW 14 19 - - - - 7 Partly cloudy - 11.7 1011.7 0.4
02/03:00pm NW 12 16 - - - - 10 Cloudy - 12.7 1011.7 0.2
02/02:50pm NW 11 16 - - - - 10 Mostly clear - 12.9 1011.7 0.2
02/02:39pm NW 12 16 - - - - 5 Mostly clear - 12.2 1011.9 0.2
02/02:30pm NW 12 17 - - - - 10 Partly cloudy - 12.7 1012.0 0.2
02/02:00pm NW 10 14 - - - - 10 Mostly clear - 13.0 1012.1 0.2
02/01:44pm NNW 10 14 - - - - 10 Mostly clear - 12.4 1012.5 0.2
02/01:30pm NW 15 20 - - - - 5 Partly cloudy - 11.4 1012.9 0.2
02/01:23pm WNW 17 21 - - - - 5 Mostly clear - 11.5 1012.9 0.0
02/01:00pm NW 13 20 - - - - 10 Partly cloudy - 12.6 1013.2 0.0
02/12:30pm NW 12 18 - - - - 10 Mostly clear - 13.2 1013.4 0.0
02/12:00pm NW 11 14 - - - - 10 Cloudy - 12.8 1013.6 0.0
02/11:30am NW 11 17 - - - - 10 Cloudy - 12.8 1013.8 0.0
02/11:00am NW 9 14 - - - - 10 Partly cloudy - 11.7 1014.3 0.0
02/10:30am NW 10 15 - - - - 10 Partly cloudy - 11.8 1014.4 0.0
02/10:00am WNW 13 21 - - - - 10 Cloudy - 12.6 1014.3 0.0
02/09:30am NW 9 14 - - - - 10 Cloudy - 12.4 1014.4 0.0
02/09:00am WNW 11 17 - - - - 10 Cloudy - 12.2 1014.3 8.6
02/08:30am WNW 12 19 - - - - 10 Cloudy - 12.0 1014.3 8.6
02/08:00am WNW 11 18 - - - - 10 Cloudy - 11.7 1014.2 8.6
02/07:30am WNW 11 18 - - - - 10 Cloudy - 11.4 1014.2 8.6
02/07:00am W 12 15 - - - - 10 Cloudy - 11.3 1014.0 8.6
02/06:30am WNW 13 20 - - - - 10 Cloudy - 11.2 1013.9 8.6
02/06:00am WNW 10 16 - - - - 10 Cloudy - 11.2 1013.8 8.6
02/05:30am WNW 10 14 - - - - 10 Cloudy - 11.1 1013.8 8.6
02/05:00am W 9 13 - - - - 10 Cloudy - 10.7 1013.8 8.6
02/04:30am WNW 8 12 - - - - 10 Cloudy - 10.7 1013.6 8.6
02/04:00am WNW 8 11 - - - - 10 Partly cloudy - 10.0 1013.6 8.6
02/03:30am W 9 13 - - - - 10 Cloudy - 10.1 1013.7 8.6
02/03:00am W 7 9 - - - - 10 Partly cloudy - 8.8 1013.9 8.6
02/02:30am W 7 9 - - - - 10 Partly cloudy - 9.3 1014.4 8.6
02/02:00am W 7 8 - - - - 10 Partly cloudy - 9.0 1014.5 8.6
02/01:30am WSW 8 11 - - - - 10 Mostly clear - 9.4 1014.3 8.6
02/01:00am WSW 7 10 - - - - 10 Partly cloudy - 10.1 1014.3 8.6
02/12:30am WSW 8 13 - - - - 10 Partly cloudy - 10.3 1014.2 8.6
02/12:00am WSW 8 12 - - - - 10 Cloudy - 10.4 1014.2 8.6
 
Date/Time
EST
Wind Sea
Height
m
Swell Vis
km
Cloud Weather Temp
°C
Press
MSL
hPa
Rain since
9am
mm
Dir  Spd
kts
Gust
kts
Height
m
Period
s
Dir
01/11:30pm WSW 8 11 - - - - 10 Cloudy - 10.4 1014.1 8.6
01/11:00pm W 9 12 - - - - 10 Partly cloudy - 10.7 1014.2 8.6
01/10:30pm WSW 9 12 - - - - 10 Mostly clear - 10.8 1013.9 8.6
01/10:00pm WSW 8 12 - - - - 10 Partly cloudy - 11.1 1013.7 8.6
01/09:30pm WSW 8 10 - - - - 10 Cloudy - 11.2 1013.8 8.6
01/09:08pm WSW 8 11 - - - - 10 Partly cloudy - 11.4 1013.4 8.6
01/09:00pm WSW 8 10 - - - - 10 Cloudy - 11.4 1013.3 8.6
01/08:30pm WSW 7 10 - - - - 10 Partly cloudy - 11.7 1012.9 8.6
01/08:00pm SW 9 12 - - - - 10 Partly cloudy - 12.0 1012.5 8.6
01/07:30pm W 16 23 - - - - 9 Partly cloudy - 12.9 1012.0 8.6
01/07:12pm NW 17 22 - - - - 5 Cloudy - 13.5 1011.4 8.2
01/07:00pm NW 16 21 - - - - 10 Partly cloudy - 13.4 1011.2 8.2
01/06:34pm NNW 12 17 - - - - 10 Cloudy - 13.2 1011.1 8.0
01/06:30pm NNW 11 17 - - - - 10 Cloudy - 13.2 1011.0 8.0
01/06:06pm NNW 13 19 - - - - 10 Partly cloudy - 13.1 1010.9 7.4
01/06:00pm NNW 12 19 - - - - 10 Cloudy Recent precip. 13.1 1010.9 7.0
01/05:41pm NNW 14 20 - - - - 10 Partly cloudy - 13.0 1010.7 6.8
01/05:30pm NNW 14 21 - - - - 7 Partly cloudy - 13.1 1010.7 6.6
01/05:25pm NNW 14 23 - - - - 9 Mostly clear - 13.1 1010.6 6.6
01/05:13pm NNW 13 19 - - - - 5 Mostly clear - 13.1 1010.6 6.4
01/05:00pm NNW 12 17 - - - - 10 Partly cloudy - 13.2 1010.4 5.2
01/04:30pm NNW 12 18 - - - - 10 Mostly clear - 13.2 1010.9 5.0
01/04:00pm NNW 11 16 - - - - 10 Mostly clear - 13.2 1011.1 3.6
01/03:30pm NNW 13 21 - - - - 10 Mostly clear - 13.3 1011.5 2.6
01/03:25pm NNW 13 21 - - - - 9 Mostly clear - 13.4 1011.6 2.4
01/03:00pm NW 18 29 - - - - 8 Mostly cloudy Rain 13.9 1012.1 0.6
01/02:56pm NW 18 29 - - - - 10 Cloudy - 14.0 1012.1 0.4
01/02:30pm WNW 20 28 - - - - 10 Partly cloudy - 15.6 1011.8 0.0
01/02:28pm WNW 21 28 - - - - 10 Partly cloudy - 15.8 1011.8 0.0
01/02:17pm NW 17 27 - - - - 10 Partly cloudy - 17.1 1011.7 0.0
01/02:00pm NW 20 28 - - - - 10 Partly cloudy - 17.5 1011.7 0.0
01/01:42pm NW 18 27 - - - - 10 Partly cloudy - 16.9 1012.0 0.0
01/01:30pm NW 18 28 - - - - 10 Mostly clear - 16.7 1012.0 0.0
01/01:25pm NNW 18 28 - - - - 10 Mostly clear - 16.8 1012.0 0.0
01/01:10pm NNW 16 25 - - - - 10 Partly cloudy - 17.5 1011.9 0.0
01/01:00pm NNW 17 27 - - - - 10 Partly cloudy - 17.5 1011.7 0.0
01/12:30pm NNW 18 28 - - - - 10 Partly cloudy - 18.1 1012.3 0.0
01/12:24pm NNW 18 28 - - - - 10 Mostly clear - 18.1 1012.1 0.0
01/12:14pm NNW 18 25 - - - - 10 Partly cloudy - 18.0 1012.3 0.0
01/12:00pm NNW 15 25 - - - - 10 Cloudy - 17.5 1012.6 0.0
01/11:49am NNW 16 23 - - - - 10 Mostly clear - 16.8 1012.6 0.0
01/11:30am NNW 16 27 - - - - 10 Cloudy - 16.7 1013.0 0.0
01/11:29am NNW 16 25 - - - - 10 Cloudy - 16.7 1013.1 0.0
01/11:11am N 17 27 - - - - 10 Partly cloudy - 16.6 1013.3 0.0
01/11:00am N 16 24 - - - - 10 Partly cloudy - 16.7 1013.5 0.0
01/10:30am N 15 23 - - - - 10 - - 16.3 1013.8 0.0
01/10:00am NNW 15 22 - - - - 10 Mostly clear - 15.9 1014.1 0.0
01/09:56am NNW 15 23 - - - - 10 Mostly clear - 15.8 1014.3 0.0
01/09:44am NNW 15 25 - - - - 10 Mostly clear - 16.3 1014.6 0.0
01/09:30am NNW 15 23 - - - - 10 Mostly clear - 15.8 1014.7 0.0
01/09:00am N 17 24 - - - - 10 Mostly cloudy - 15.2 1015.0 0.0
01/08:30am N 16 24 - - - - 10 - - 14.7 1015.5 0.0
01/08:00am NNW 13 20 - - - - 10 - - 13.4 1015.9 0.0
01/07:30am NNW 13 19 - - - - 10 - - 12.4 1016.0 0.0
01/07:00am NNW 13 17 - - - - 10 - - 12.4 1016.2 0.0
01/06:30am NNW 10 17 - - - - 10 - - 11.9 1016.5 0.0
01/06:00am N 9 13 - - - - 10 - - 11.2 1016.5 0.0
01/05:30am N 10 14 - - - - 10 - - 10.8 1017.0 0.0
01/05:00am NNW 7 10 - - - - 10 - - 10.1 1017.7 0.0
01/04:30am NNW 8 11 - - - - 10 - - 10.6 1018.2 0.0
01/04:00am N 9 11 - - - - 10 - - 11.1 1018.7 0.0
01/03:30am N 8 11 - - - - 10 - - 10.7 1019.3 0.0
01/03:00am N 8 10 - - - - 10 - - 10.8 1019.9 0.0
01/02:30am N 7 10 - - - - 10 - - 9.9 1020.7 0.0
01/02:00am N 7 9 - - - - 10 - - 9.9 1021.2 0.0
01/01:30am NNW 6 8 - - - - 10 - - 9.4 1021.7 0.0
01/01:00am N 5 6 - - - - 10 - - 9.0 1021.8 0.0
01/12:30am N 6 8 - - - - 10 - - 9.4 1022.2 0.0
01/12:00am N 6 7 - - - - 10 - - 9.1 1022.8 0.0
 
Date/Time
EST
Wind Sea
Height
m
Swell Vis
km
Cloud Weather Temp
°C
Press
MSL
hPa
Rain since
9am
mm
Dir  Spd
kts
Gust
kts
Height
m
Period
s
Dir
31/11:30pm NNW 6 7 - - - - 10 - - 8.9 1023.3 0.0
31/11:00pm N 6 8 - - - - 10 - - 8.7 1023.9 0.0
31/10:30pm N 7 8 - - - - 10 - - 8.7 1024.6 0.0
31/10:00pm NNE 4 6 - - - - 10 - - 8.2 1024.6 0.0
31/09:30pm E 3 4 - - - - 9 - - 8.2 1024.9 0.0
31/09:00pm E 3 4 - - - - 10 - - 8.0 1025.3 0.0
31/08:30pm CALM 0 0 - - - - 10 - - 9.0 1025.4 0.0
31/08:00pm CALM 0 0 - - - - 10 - - 9.7 1025.7 0.0
31/07:59pm CALM 0 0 - - - - 10 - - 9.7 1025.7 0.0
31/07:30pm CALM 0 0 - - - - 2 - - 9.9 1025.9 0.0
31/07:24pm CALM 0 0 - - - - 2 - - 10.4 1026.0 0.0
31/07:00pm CALM 0 0 - - - - 10 - - 10.9 1026.0 0.0
31/06:30pm CALM 0 0 - - - - 10 - - 12.6 1026.1 0.0
31/06:00pm CALM 0 0 - - - - 10 - - 15.1 1026.2 0.0
31/05:30pm E 2 4 - - - - 10 - - 16.0 1026.3 0.0
31/05:00pm E 3 4 - - - - 10 - - 17.2 1026.4 0.0
31/04:30pm ESE 2 6 - - - - 10 - - 17.9 1026.6 0.0
31/04:00pm S 1 5 - - - - 10 - - 18.2 1026.9 0.0
31/03:30pm SSW 2 5 - - - - 10 - - 17.7 1027.4 0.0
31/03:00pm SSW 5 6 - - - - 10 - - 17.6 1027.9 0.0
31/02:30pm WSW 5 7 - - - - 10 - - 17.9 1028.1 0.0
31/02:00pm NNE 3 6 - - - - 10 - - 18.4 1028.5 0.0
31/01:30pm NE 4 7 - - - - 10 - - 17.5 1029.2 0.0
31/01:00pm NE 3 6 - - - - 10 - - 16.9 1029.8 0.0
31/12:30pm NE 3 6 - - - - 10 - - 16.1 1030.3 0.0
31/12:00pm NNE 5 6 - - - - 10 - - 14.9 1030.9 0.0
31/11:30am NE 5 7 - - - - 10 - - 14.1 1031.3 0.0
31/11:00am NNE 5 8 - - - - 10 - - 13.2 1031.6 0.0
31/10:30am NE 5 6 - - - - 10 - - 12.3 1031.8 0.0
31/10:00am NE 6 8 - - - - 10 - - 11.2 1032.0 0.0
31/09:30am NNE 7 9 - - - - 10 - - 10.2 1032.2 0.0
31/09:19am NNE 7 9 - - - - 10 Mostly clear - 10.0 1032.1 0.0
31/09:00am NNE 6 8 - - - - 10 Partly cloudy - 9.5 1032.3 0.0
31/08:30am NNE 4 7 - - - - 10 Cloudy - 9.7 1032.4 0.0
31/08:00am CALM 0 0 - - - - 10 Cloudy - 9.5 1032.4 0.0
31/07:30am CALM 0 0 - - - - 10 Cloudy - 9.2 1032.3 0.0
31/07:00am CALM 0 0 - - - - 10 Cloudy - 9.2 1032.1 0.0
31/06:30am CALM 0 0 - - - - 10 Cloudy - 9.4 1032.2 0.0
31/06:00am N 1 3 - - - - 10 Cloudy - 9.5 1032.4 0.0
31/05:30am CALM 0 0 - - - - 10 Cloudy - 9.7 1032.5 0.0
31/05:00am CALM 0 0 - - - - 10 Cloudy - 9.7 1032.5 0.0
31/04:30am CALM 0 0 - - - - 10 Cloudy - 9.7 1032.2 0.0
31/04:00am CALM 0 0 - - - - 10 Cloudy - 9.8 1032.3 0.0
31/03:30am WSW 2 5 - - - - 10 Cloudy - 9.7 1032.5 0.0
31/03:00am CALM 0 0 - - - - 10 Cloudy - 9.9 1032.8 0.0
31/02:30am WSW 2 5 - - - - 10 Cloudy - 9.9 1033.1 0.0
31/02:00am SSW 3 5 - - - - 10 Cloudy - 10.1 1033.2 0.0
31/01:30am CALM 0 0 - - - - 10 Cloudy - 10.0 1033.4 0.0

Other formats

Comma delimited format used in spreadsheet applications
http://www.bom.gov.au/fwo/IDV60701/IDV60701.94828.axf

JavaScript Object Notation format (JSON) in row-major order
http://www.bom.gov.au/fwo/IDV60701/IDV60701.94828.json

Data quality

Most of these data are generated automatically and are frequently updated. Quality checks on data are not normally performed. It is possible for incorrect values to appear. Refer to information at About Latest Weather Observations and please check the disclaimer before using these data.